Time;durP1;ratioP1;P1;durP2;ratioP2;P2;SDS_P1;SDS_P2;PMS_P1;PMS_P2;Temp;Humidity;BMP_temperature;BMP_pressure;BME280_temperature;BME280_humidity;BME280_pressure;Samples;Min_cycle;Max_cycle;Signal;HPM_P1;HPM_P2
2022/06/27 00:05:28;;;;;;;6.67;4.90;;;;;;;22.36;54.18;100134.00;30866456;28;96807;-75
2022/06/27 00:20:28;;;;;;;9.37;4.93;;;;;;;22.13;54.64;100129.59;30864663;28;96700;-74
2022/06/27 00:35:29;;;;;;;9.20;5.60;;;;;;;21.91;55.16;100132.22;30861753;28;97172;-66
2022/06/27 00:50:29;;;;;;;7.87;5.60;;;;;;;21.63;55.11;100137.47;30861538;28;96749;-66
2022/06/27 01:05:30;;;;;;;6.00;5.40;;;;;;;20.95;55.91;100140.00;30860548;28;97219;-72
2022/06/27 01:20:30;;;;;;;8.70;5.63;;;;;;;20.33;57.61;100139.72;30859322;28;96893;-67
2022/06/27 01:35:31;;;;;;;6.18;5.28;;;;;;;19.92;58.53;100126.88;30856430;28;97115;-68
2022/06/27 01:50:32;;;;;;;7.05;5.60;;;;;;;19.67;59.39;100132.47;30857090;28;96795;-74
2022/06/27 02:05:33;;;;;;;7.53;5.40;;;;;;;19.50;60.19;100112.56;30856284;28;96752;-75
2022/06/27 02:20:33;;;;;;;8.73;6.10;;;;;;;19.32;60.72;100122.38;30855015;28;96583;-66
2022/06/27 02:35:35;;;;;;;9.20;6.35;;;;;;;19.13;61.05;100135.09;30853699;28;96835;-70
2022/06/27 02:50:39;;;;;;;11.73;6.23;;;;;;;19.00;61.45;100159.56;30852606;28;97470;-72
2022/06/27 03:05:59;;;;;;;12.00;6.60;;;;;;;18.83;61.98;100160.16;30863607;28;96790;-73
2022/06/27 03:20:59;;;;;;;9.93;6.47;;;;;;;18.83;62.28;100157.47;30869694;28;96745;-66
2022/06/27 03:36:00;;;;;;;6.85;6.15;;;;;;;18.93;62.37;100165.91;30867933;28;97481;-67
2022/06/27 03:51:00;;;;;;;10.13;6.80;;;;;;;19.14;62.05;100182.66;30866545;28;96764;-70
2022/06/27 04:06:01;;;;;;;8.30;6.65;;;;;;;19.39;61.95;100179.84;30863827;28;97695;-72
2022/06/27 04:21:01;;;;;;;14.45;6.40;;;;;;;19.69;61.04;100183.59;30860523;28;96931;-74
2022/06/27 04:36:02;;;;;;;10.93;6.95;;;;;;;20.00;60.62;100178.97;30858387;28;96677;-73
2022/06/27 04:51:03;;;;;;;;;;;;;;;20.39;60.20;100190.16;30858478;28;96812;-73
2022/06/27 05:06:04;;;;;;;10.43;6.45;;;;;;;20.79;59.44;100174.06;30857690;28;97379;-67
2022/06/27 05:21:04;;;;;;;8.93;5.78;;;;;;;21.34;58.68;100196.28;30851765;28;96788;-66
2022/06/27 05:36:06;;;;;;;17.77;7.50;;;;;;;22.07;57.85;100184.81;30852671;28;96663;-68
2022/06/27 05:51:06;;;;;;;11.10;5.50;;;;;;;22.74;55.75;100199.41;30853400;28;97533;-67
2022/06/27 06:06:07;;;;;;;8.77;5.20;;;;;;;23.40;53.85;100185.00;30844136;28;97301;-69
2022/06/27 06:21:07;;;;;;;7.65;5.72;;;;;;;23.96;52.06;100182.84;30839064;28;97350;-66
2022/06/27 06:36:09;;;;;;;;;;;;;;;24.50;51.14;100181.03;30857972;28;96699;-69
2022/06/27 06:51:09;;;;;;;6.80;5.63;;;;;;;25.27;49.54;100184.09;30872010;28;96817;-69
2022/06/27 07:06:12;;;;;;;6.18;4.95;;;;;;;26.59;46.74;100175.44;30866673;28;97644;-74
2022/06/27 07:21:19;;;;;;;7.47;4.83;;;;;;;27.67;43.96;100179.59;30863444;28;98073;-70
2022/06/27 07:36:22;;;;;;;6.30;4.43;;;;;;;28.42;42.04;100174.81;30859664;28;97523;-68
2022/06/27 07:51:22;;;;;;;10.77;4.40;;;;;;;29.16;39.79;100163.56;30851966;28;98234;-71
2022/06/27 08:06:24;;;;;;;9.73;4.35;;;;;;;29.82;38.52;100166.41;30852627;28;97130;-70
2022/06/27 08:21:27;;;;;;;5.50;4.20;;;;;;;30.34;36.93;100171.84;30851385;28;96995;-69
2022/06/27 08:36:30;;;;;;;7.20;3.90;;;;;;;30.99;34.91;100159.00;30750633;28;96884;-71
2022/06/27 08:51:33;;;;;;;7.03;3.80;;;;;;;31.92;33.70;100156.88;30736179;28;96701;-69
2022/06/27 09:06:43;;;;;;;7.10;3.83;;;;;;;32.45;32.28;100167.09;30734174;28;96997;-73
2022/06/27 09:21:43;;;;;;;5.03;3.50;;;;;;;32.33;31.15;100147.59;30734972;28;96762;-68
2022/06/27 09:36:51;;;;;;;6.68;3.25;;;;;;;32.32;30.67;100132.97;30732646;28;96928;-67
2022/06/27 09:51:54;;;;;;;3.90;3.30;;;;;;;32.99;29.02;100122.78;30732162;28;96714;-67
2022/06/27 10:06:58;;;;;;;5.50;2.87;;;;;;;33.65;26.96;100107.97;30728658;28;97115;-69
2022/06/27 10:21:58;;;;;;;7.10;2.97;;;;;;;34.46;25.97;100094.41;30728935;28;96891;-72
2022/06/27 10:37:20;;;;;;;4.60;3.50;;;;;;;33.55;27.22;100073.25;30912287;28;97409;-74
2022/06/27 10:52:23;;;;;;;6.73;3.77;;;;;;;33.73;26.94;100062.16;30973304;28;96943;-70
2022/06/27 11:07:24;;;;;;;7.80;3.60;;;;;;;33.96;27.24;100054.47;30931161;28;96944;-66
2022/06/27 11:22:24;;;;;;;7.78;4.28;;;;;;;34.32;27.24;100031.06;30975098;28;96939;-66
2022/06/27 11:37:29;;;;;;;8.00;4.05;;;;;;;34.77;27.42;100014.97;31003897;28;96880;-71
2022/06/27 11:52:47;;;;;;;7.50;4.60;;;;;;;35.14;26.71;100017.91;30951286;28;97070;-74
2022/06/27 12:07:58;;;;;;;6.07;4.10;;;;;;;33.98;27.37;100019.03;30850109;28;96705;-71
2022/06/27 12:22:58;;;;;;;5.90;3.17;;;;;;;34.31;26.63;100001.81;30850187;28;97392;-71
2022/06/27 12:38:00;;;;;;;5.82;3.22;;;;;;;34.58;25.74;100005.19;30842293;28;97968;-67
2022/06/27 12:53:01;;;;;;;7.53;2.57;;;;;;;34.52;26.41;99987.97;30856997;28;96784;-71
2022/06/27 13:08:02;;;;;;;2.85;2.30;;;;;;;34.51;27.09;99989.13;30845829;28;97083;-76
2022/06/27 13:23:02;;;;;;;3.90;2.78;;;;;;;34.35;27.56;99961.28;30758144;28;97587;-76
2022/06/27 13:38:03;;;;;;;3.47;2.50;;;;;;;33.99;28.57;99959.84;30793996;28;97213;-71
2022/06/27 13:53:04;;;;;;;5.55;2.70;;;;;;;34.40;28.61;99963.03;30786067;28;97278;-73
2022/06/27 14:08:05;;;;;;;3.30;2.30;;;;;;;34.00;29.37;99967.00;30850869;28;96869;-75
2022/06/27 14:23:06;;;;;;;3.97;2.37;;;;;;;34.13;28.66;99953.28;30849039;28;96811;-71
2022/06/27 14:38:06;;;;;;;6.55;2.10;;;;;;;34.12;27.99;99968.22;30846183;28;96751;-73
2022/06/27 14:53:07;;;;;;;3.00;2.20;;;;;;;34.03;27.94;99937.91;30844775;28;97097;-70
2022/06/27 15:08:08;;;;;;;2.30;1.70;;;;;;;33.94;27.42;99934.38;30864778;28;96831;-67
2022/06/27 15:23:08;;;;;;;3.28;1.60;;;;;;;33.56;27.51;99938.78;30864583;28;96697;-67
2022/06/27 15:38:08;;;;;;;4.45;2.40;;;;;;;33.15;27.86;99918.91;30820538;28;96970;-68
2022/06/27 15:53:09;;;;;;;4.35;1.80;;;;;;;32.92;27.17;99925.75;30850747;28;97086;-67
2022/06/27 16:08:09;;;;;;;3.53;1.70;;;;;;;32.67;28.25;99928.22;30851121;28;97500;-74
2022/06/27 16:23:10;;;;;;;3.13;1.95;;;;;;;32.34;29.69;99937.78;30848814;28;96795;-74
2022/06/27 16:38:11;;;;;;;3.63;1.95;;;;;;;32.30;29.12;99947.00;30846548;28;97083;-69
2022/06/27 16:53:14;;;;;;;3.03;2.50;;;;;;;32.23;29.53;99947.50;30845411;28;97186;-76
2022/06/27 17:08:14;;;;;;;4.53;2.13;;;;;;;31.85;30.47;99948.03;30846940;28;97625;-78
2022/06/27 17:23:14;;;;;;;3.08;2.47;;;;;;;31.62;31.87;99961.88;30846685;28;97315;-79
2022/06/27 17:38:15;;;;;;;4.60;2.58;;;;;;;31.29;32.96;99958.59;30846297;28;97732;-80
2022/06/27 17:53:15;;;;;;;4.75;2.15;;;;;;;30.81;34.16;99954.56;30832010;28;97690;-76
2022/06/27 18:08:16;;;;;;;7.00;2.53;;;;;;;30.43;35.49;99974.09;30733991;28;98552;-76
2022/06/27 18:23:16;;;;;;;5.13;2.70;;;;;;;30.19;36.02;99983.41;30783730;28;96963;-76
2022/06/27 18:38:16;;;;;;;3.80;2.60;;;;;;;29.73;37.77;99981.56;30851188;28;102826;-66
2022/06/27 18:53:17;;;;;;;6.15;2.50;;;;;;;29.31;38.63;99979.56;30859861;28;97215;-72
2022/06/27 19:08:17;;;;;;;5.57;2.75;;;;;;;29.36;38.27;99973.16;30858912;28;96757;-69
2022/06/27 19:23:19;;;;;;;4.88;3.22;;;;;;;29.22;39.01;99984.06;30852662;28;96972;-67
2022/06/27 19:38:20;;;;;;;9.03;3.77;;;;;;;28.74;39.92;99978.81;30847840;28;97085;-71
2022/06/27 19:53:21;;;;;;;4.47;3.05;;;;;;;28.65;40.15;99990.47;30848146;28;97160;-70
2022/06/27 20:08:21;;;;;;;5.70;3.20;;;;;;;28.14;41.73;99989.16;30861487;28;97416;-66
2022/06/27 20:23:22;;;;;;;8.38;3.60;;;;;;;27.61;42.64;99994.66;30845612;28;97726;-73
2022/06/27 20:38:22;;;;;;;4.03;3.35;;;;;;;27.16;43.17;99975.63;30747175;28;1294969;-73
2022/06/27 20:53:23;;;;;;;5.43;3.30;;;;;;;26.91;44.19;99952.06;30737169;28;96821;-72
2022/06/27 21:23:42;;;;;;;4.63;3.37;;;;;;;26.04;46.50;99958.81;30774991;28;97138;-68
2022/06/27 21:38:43;;;;;;;8.95;3.95;;;;;;;26.13;47.21;99966.13;30853396;28;97208;-70
2022/06/27 21:53:44;;;;;;;6.78;3.83;;;;;;;25.87;47.52;99991.88;30855700;28;97415;-64
2022/06/27 22:08:44;;;;;;;7.57;4.10;;;;;;;25.58;48.40;100004.19;30854606;28;97455;-70
2022/06/27 22:23:45;;;;;;;8.35;4.03;;;;;;;25.30;49.73;100047.28;30852799;28;97040;-70
2022/06/27 22:38:46;;;;;;;5.37;4.30;;;;;;;25.02;51.01;100031.44;30850558;28;97019;-68
2022/06/27 22:53:46;;;;;;;4.32;3.90;;;;;;;25.18;51.10;100044.81;30849149;28;97210;-64
2022/06/27 23:08:46;;;;;;;5.55;4.38;;;;;;;25.25;51.94;100024.66;30849729;28;97278;-74
2022/06/27 23:23:47;;;;;;;7.85;4.70;;;;;;;25.47;51.34;100027.94;30865027;28;97270;-75
2022/06/27 23:38:47;;;;;;;8.63;5.35;;;;;;;25.26;51.43;100043.47;30870256;28;96776;-73
2022/06/27 23:53:48;;;;;;;10.68;4.85;;;;;;;24.57;52.55;100041.94;30868585;28;107465;-65
